Terminal Aerodrome Forecast
Issued by NWS Sioux Falls, SD

Home | Current Version | Previous Version | Text Only | Print | Product List | Glossary On
Versions: 1 2 3 4 5 6 7 8 9 10 11 12 13 14 15 16 17 18 19 20 21 22 23 24 25 26 27 28 29 30 31
000
FTUS43 KFSD 230321 AAA
TAFSUX
TAF AMD
KSUX 230321Z 2303/2324 36012KT P6SM FEW250
     FM230800 36009KT P6SM BKN050
     FM231000 01009KT P6SM BKN015
     FM231400 04009KT P6SM OVC010
     FM231800 06015G23KT P6SM -RA OVC015=

USA.gov is the U.S. government's official web portal to all federal, state and local government web resources and services.